createdAt,value
2023-02-12T00:01:34.579Z,4.78
2023-02-12T00:04:07.513Z,4.80
2023-02-12T00:06:40.585Z,4.83
2023-02-12T00:09:13.378Z,4.45
2023-02-12T00:11:46.243Z,4.84
2023-02-12T00:14:19.197Z,4.99
2023-02-12T00:16:53.337Z,5.08
2023-02-12T00:19:26.168Z,5.04
2023-02-12T00:21:58.997Z,5.18
2023-02-12T00:24:32.053Z,5.07
2023-02-12T00:27:04.934Z,5.01
2023-02-12T00:29:38.438Z,4.92
2023-02-12T00:32:14.210Z,4.81
2023-02-12T00:34:47.331Z,4.34
2023-02-12T00:37:22.118Z,4.35
2023-02-12T00:39:54.923Z,4.69
2023-02-12T00:42:27.816Z,4.80
2023-02-12T00:45:01.986Z,5.06
2023-02-12T00:47:38.473Z,4.96
2023-02-12T00:50:12.308Z,4.92
2023-02-12T00:52:46.960Z,4.51
2023-02-12T00:55:20.116Z,4.02
2023-02-12T00:57:52.903Z,4.06
2023-02-12T01:00:26.325Z,4.29
2023-02-12T01:03:00.796Z,4.24
2023-02-12T01:05:34.031Z,4.46
2023-02-12T01:08:06.863Z,4.58
2023-02-12T01:10:39.686Z,4.65
2023-02-12T01:13:14.900Z,4.55
2023-02-12T01:15:47.825Z,4.53
2023-02-12T01:18:22.575Z,4.29
2023-02-12T01:20:55.435Z,4.58
2023-02-12T01:23:29.752Z,4.62
2023-02-12T01:26:02.632Z,4.24
2023-02-12T01:28:35.504Z,4.41
2023-02-12T01:31:13.023Z,4.75
2023-02-12T01:33:48.986Z,4.34
2023-02-12T01:36:22.693Z,4.52
2023-02-12T01:38:56.623Z,4.65
2023-02-12T01:41:31.141Z,4.38
2023-02-12T01:44:15.497Z,4.56
2023-02-12T01:46:49.992Z,4.62
2023-02-12T01:49:28.113Z,4.58
2023-02-12T01:52:06.156Z,4.72
2023-02-12T01:54:39.388Z,4.70
2023-02-12T01:57:13.935Z,4.79
2023-02-12T01:59:51.722Z,4.42
2023-02-12T02:02:26.365Z,4.47
2023-02-12T02:05:03.884Z,4.52
2023-02-12T02:07:36.876Z,4.68
2023-02-12T02:10:11.034Z,4.29
2023-02-12T02:13:01.344Z,4.50
2023-02-12T02:15:34.406Z,4.45
2023-02-12T02:18:17.020Z,4.47
2023-02-12T02:21:28.345Z,4.23
2023-02-12T02:24:34.143Z,4.20
2023-02-12T02:27:20.621Z,4.41
2023-02-12T02:30:23.615Z,4.68
2023-02-12T02:33:08.005Z,4.42
2023-02-12T02:35:45.436Z,3.86
2023-02-12T02:38:26.752Z,3.86
2023-02-12T02:41:05.887Z,3.89
2023-02-12T02:43:45.176Z,3.91
2023-02-12T02:46:25.714Z,4.29
2023-02-12T02:49:03.157Z,4.44
2023-02-12T02:51:44.227Z,4.74
2023-02-12T02:54:20.445Z,4.59
2023-02-12T02:56:58.359Z,4.59
2023-02-12T02:59:36.630Z,4.48
2023-02-12T03:02:17.029Z,4.37
2023-02-12T03:04:52.935Z,4.63
2023-02-12T03:07:30.632Z,4.56
2023-02-12T03:10:08.477Z,4.65
2023-02-12T03:12:47.729Z,4.61
2023-02-12T03:15:25.349Z,4.74
2023-02-12T03:18:01.366Z,4.71
2023-02-12T03:20:40.853Z,4.61
2023-02-12T03:23:17.523Z,4.18
2023-02-12T03:25:57.042Z,4.48
2023-02-12T03:28:32.613Z,4.72
2023-02-12T03:31:11.690Z,4.85
2023-02-12T03:33:55.572Z,4.80
2023-02-12T03:36:36.609Z,4.59
2023-02-12T03:39:14.643Z,4.58
2023-02-12T03:41:55.224Z,4.77
2023-02-12T03:44:40.842Z,4.77
2023-02-12T03:47:20.165Z,4.45
2023-02-12T03:50:02.062Z,4.66
2023-02-12T03:52:35.587Z,4.88
2023-02-12T03:55:09.307Z,4.94
2023-02-12T03:57:45.476Z,4.93
2023-02-12T04:00:21.852Z,4.85
2023-02-12T04:02:56.037Z,4.66
2023-02-12T04:05:30.168Z,4.67
2023-02-12T04:08:12.739Z,4.66
2023-02-12T04:10:58.821Z,4.03
2023-02-12T04:13:40.788Z,4.52
2023-02-12T04:16:22.441Z,4.46
2023-02-12T04:18:56.311Z,4.02
2023-02-12T04:21:44.556Z,4.35
2023-02-12T04:24:25.339Z,4.40
2023-02-12T04:27:03.296Z,4.70
2023-02-12T04:29:46.339Z,4.51
2023-02-12T04:32:25.518Z,4.74
2023-02-12T04:35:03.077Z,4.70
2023-02-12T04:37:42.377Z,4.17
2023-02-12T04:40:17.650Z,4.34
2023-02-12T04:42:52.296Z,4.71
2023-02-12T04:45:28.193Z,4.37
2023-02-12T04:48:01.249Z,4.33
2023-02-12T04:50:40.341Z,4.40
2023-02-12T04:53:14.763Z,4.19
2023-02-12T04:55:49.465Z,3.99
2023-02-12T04:58:22.450Z,4.29
2023-02-12T05:00:55.396Z,4.27
2023-02-12T05:03:28.706Z,3.99
2023-02-12T05:06:04.774Z,4.06
2023-02-12T05:08:39.187Z,4.00
2023-02-12T05:11:13.378Z,4.18
2023-02-12T05:13:49.877Z,4.39
2023-02-12T05:16:23.205Z,4.14
2023-02-12T05:18:56.067Z,3.78
2023-02-12T05:21:29.266Z,3.78
2023-02-12T05:24:04.149Z,3.93
2023-02-12T05:26:38.960Z,3.81
2023-02-12T05:29:11.968Z,3.70
2023-02-12T05:31:45.980Z,3.84
2023-02-12T05:34:19.034Z,4.29
2023-02-12T05:36:51.956Z,4.18
2023-02-12T05:39:26.448Z,4.11
2023-02-12T05:41:59.361Z,4.29
2023-02-12T05:44:32.234Z,4.50
2023-02-12T05:47:05.085Z,4.58
2023-02-12T05:49:38.336Z,4.59
2023-02-12T05:52:11.100Z,4.06
2023-02-12T05:54:45.586Z,4.50
2023-02-12T05:57:18.641Z,3.81
2023-02-12T05:59:51.746Z,3.76
2023-02-12T06:02:24.630Z,3.91
2023-02-12T06:04:57.695Z,4.48
2023-02-12T06:07:30.848Z,4.46
2023-02-12T06:10:09.704Z,4.52
2023-02-12T06:12:42.823Z,4.55
2023-02-12T06:15:15.931Z,4.27
2023-02-12T06:17:49.040Z,3.89
2023-02-12T06:20:22.147Z,3.93
2023-02-12T06:22:55.173Z,4.18
2023-02-12T06:25:29.499Z,4.02
2023-02-12T06:28:02.566Z,4.25
2023-02-12T06:30:35.945Z,4.26
2023-02-12T06:33:08.803Z,4.43
2023-02-12T06:35:41.824Z,4.22
2023-02-12T06:38:14.841Z,4.52
2023-02-12T06:40:49.297Z,3.98
2023-02-12T06:43:22.103Z,3.93
2023-02-12T06:45:55.409Z,3.95
2023-02-12T06:48:30.309Z,4.28
2023-02-12T06:51:08.452Z,4.20
2023-02-12T06:53:41.534Z,3.82
2023-02-12T06:56:15.760Z,3.77
2023-02-12T06:58:52.894Z,3.71
2023-02-12T07:01:27.692Z,4.26
2023-02-12T07:04:02.246Z,4.30
2023-02-12T07:06:37.007Z,4.30
2023-02-12T07:09:09.820Z,4.16
2023-02-12T07:11:44.009Z,4.11
2023-02-12T07:14:17.913Z,4.14
2023-02-12T07:16:51.038Z,4.26
2023-02-12T07:19:24.303Z,4.23
2023-02-12T07:21:57.132Z,4.16
2023-02-12T07:24:30.040Z,4.15
2023-02-12T07:27:04.148Z,4.10
2023-02-12T07:29:36.983Z,4.10
2023-02-12T07:32:09.894Z,4.45
2023-02-12T07:34:42.774Z,4.39
2023-02-12T07:37:15.751Z,4.42
2023-02-12T07:39:48.591Z,4.31
2023-02-12T07:42:22.707Z,4.37
2023-02-12T07:44:56.404Z,4.38
2023-02-12T07:47:29.232Z,4.45
2023-02-12T07:50:02.040Z,4.54
2023-02-12T07:52:35.404Z,4.68
2023-02-12T07:55:09.203Z,4.67
2023-02-12T07:57:43.452Z,4.62
2023-02-12T08:00:17.337Z,4.86
2023-02-12T08:02:54.119Z,4.94
2023-02-12T08:05:26.935Z,4.97
2023-02-12T08:07:59.704Z,4.85
2023-02-12T08:10:32.609Z,4.94
2023-02-12T08:13:06.746Z,5.15
2023-02-12T08:15:39.534Z,5.03
2023-02-12T08:18:12.361Z,5.16
2023-02-12T08:20:45.195Z,5.29
2023-02-12T08:23:21.189Z,5.34
2023-02-12T08:25:54.184Z,5.53
2023-02-12T08:28:29.969Z,5.71
2023-02-12T08:31:03.264Z,6.07
2023-02-12T08:33:36.127Z,5.70
2023-02-12T08:36:11.421Z,5.85
2023-02-12T08:38:46.346Z,6.38
2023-02-12T08:41:21.744Z,6.77
2023-02-12T08:43:57.593Z,6.73
2023-02-12T08:46:32.725Z,6.50
2023-02-12T08:49:09.464Z,6.17
2023-02-12T08:51:44.568Z,6.51
2023-02-12T08:54:20.732Z,7.19
2023-02-12T08:56:56.370Z,7.32
2023-02-12T08:59:31.260Z,6.41
2023-02-12T09:02:08.826Z,6.46
2023-02-12T09:04:41.665Z,6.44
2023-02-12T09:07:14.462Z,6.88
2023-02-12T09:09:47.334Z,6.69
2023-02-12T09:12:20.404Z,6.99
2023-02-12T09:14:54.730Z,6.98
2023-02-12T09:17:27.610Z,7.39
2023-02-12T09:20:01.526Z,7.32
2023-02-12T09:22:38.110Z,6.88
2023-02-12T09:25:11.045Z,7.36
2023-02-12T09:27:43.926Z,7.76
2023-02-12T09:30:18.949Z,7.74
2023-02-12T09:32:51.741Z,7.34
2023-02-12T09:35:24.940Z,7.81
2023-02-12T09:37:57.976Z,7.94
2023-02-12T09:40:37.782Z,7.51
2023-02-12T09:43:19.613Z,7.40
2023-02-12T09:45:59.403Z,7.07
2023-02-12T09:48:44.030Z,7.56
2023-02-12T09:51:17.173Z,7.58
2023-02-12T09:53:52.757Z,7.22
2023-02-12T09:56:27.915Z,7.24
2023-02-12T09:59:03.899Z,7.34
2023-02-12T10:01:38.184Z,7.52
2023-02-12T10:04:11.200Z,7.40
2023-02-12T10:06:52.914Z,7.72
2023-02-12T10:09:39.503Z,7.53
2023-02-12T10:12:21.463Z,7.47
2023-02-12T10:15:18.041Z,7.98
2023-02-12T10:18:04.623Z,8.05
2023-02-12T10:20:49.233Z,8.13
2023-02-12T10:23:34.629Z,8.36
2023-02-12T10:26:16.499Z,8.81
2023-02-12T10:28:50.805Z,8.43
2023-02-12T10:31:30.649Z,8.35
2023-02-12T10:34:15.189Z,8.43
2023-02-12T10:36:49.966Z,8.89
2023-02-12T10:39:25.055Z,9.01
2023-02-12T10:42:03.475Z,9.03
2023-02-12T10:44:36.352Z,9.02
2023-02-12T10:47:18.768Z,8.95
2023-02-12T10:49:57.768Z,9.37
2023-02-12T10:52:40.580Z,9.16
2023-02-12T10:55:29.218Z,9.26
2023-02-12T10:58:05.448Z,9.28
2023-02-12T11:00:40.040Z,9.38
2023-02-12T11:03:23.756Z,9.42
2023-02-12T11:05:58.316Z,9.46
2023-02-12T11:08:34.853Z,9.27
2023-02-12T11:11:11.683Z,9.53
2023-02-12T11:13:50.826Z,9.59
2023-02-12T11:16:29.563Z,9.27
2023-02-12T11:19:05.806Z,9.41
2023-02-12T11:21:40.015Z,9.51
2023-02-12T11:24:24.097Z,9.60
2023-02-12T11:27:13.411Z,9.29
2023-02-12T11:29:49.018Z,9.19
2023-02-12T11:32:21.945Z,9.43
2023-02-12T11:35:07.322Z,9.14
2023-02-12T11:37:44.196Z,9.34
2023-02-12T11:40:21.191Z,10.17
2023-02-12T11:42:57.758Z,9.73
2023-02-12T11:45:35.637Z,9.92
2023-02-12T11:48:19.157Z,9.86
2023-02-12T11:50:54.631Z,9.63
2023-02-12T11:53:32.260Z,9.81
2023-02-12T11:56:07.107Z,10.14
2023-02-12T11:58:40.801Z,10.09
2023-02-12T12:01:19.719Z,9.82
2023-02-12T12:04:01.821Z,10.18
2023-02-12T12:06:37.526Z,9.85
2023-02-12T12:09:19.187Z,9.40
2023-02-12T12:12:01.070Z,9.53
2023-02-12T12:15:00.519Z,9.69
2023-02-12T12:18:03.012Z,9.75
2023-02-12T12:20:42.251Z,10.25
2023-02-12T12:23:19.895Z,9.54
2023-02-12T12:25:58.367Z,9.81
2023-02-12T12:28:36.838Z,10.46
2023-02-12T12:31:13.387Z,10.70
2023-02-12T12:33:50.664Z,10.19
2023-02-12T12:36:44.909Z,10.67
2023-02-12T12:39:27.853Z,10.02
2023-02-12T12:42:20.564Z,10.69
2023-02-12T12:45:14.238Z,10.70
2023-02-12T12:48:02.987Z,10.99
2023-02-12T12:50:58.197Z,11.78
2023-02-12T12:53:43.627Z,11.51
2023-02-12T12:56:30.226Z,11.28
2023-02-12T12:59:30.345Z,11.64
2023-02-12T13:02:33.261Z,11.81
2023-02-12T13:05:24.551Z,11.74
2023-02-12T13:08:09.844Z,12.07
2023-02-12T13:10:49.850Z,11.65
2023-02-12T13:13:29.854Z,10.87
2023-02-12T13:16:14.931Z,10.56
2023-02-12T13:18:58.964Z,10.36
2023-02-12T13:21:46.716Z,10.20
2023-02-12T13:24:31.774Z,10.32
2023-02-12T13:27:08.853Z,10.03
2023-02-12T13:29:47.554Z,10.39
2023-02-12T13:32:26.805Z,10.61
2023-02-12T13:35:01.602Z,11.13
2023-02-12T13:37:41.073Z,11.65
2023-02-12T13:40:17.218Z,11.56
2023-02-12T13:42:56.873Z,10.83
2023-02-12T13:45:41.245Z,10.47
2023-02-12T13:48:35.065Z,9.74
2023-02-12T13:51:16.616Z,9.82
2023-02-12T13:54:02.796Z,9.91
2023-02-12T13:56:42.508Z,10.13
2023-02-12T13:59:41.423Z,10.11
2023-02-12T14:02:49.592Z,10.41
2023-02-12T14:05:27.823Z,10.31
2023-02-12T14:08:05.751Z,10.48
2023-02-12T14:10:41.693Z,10.37
2023-02-12T14:13:20.727Z,11.00
2023-02-12T14:15:56.356Z,10.56
2023-02-12T14:18:35.079Z,10.29
2023-02-12T14:21:39.563Z,10.29
2023-02-12T14:24:52.210Z,10.33
2023-02-12T14:27:30.324Z,10.67
2023-02-12T14:30:31.692Z,10.53
2023-02-12T14:33:20.750Z,10.57
2023-02-12T14:36:20.034Z,10.78
2023-02-12T14:39:03.458Z,10.41
2023-02-12T14:41:43.808Z,10.61
2023-02-12T14:44:47.897Z,10.35
2023-02-12T14:47:53.821Z,10.13
2023-02-12T14:50:32.046Z,10.32
2023-02-12T14:53:23.608Z,10.25
2023-02-12T14:55:59.479Z,10.08
2023-02-12T14:58:33.760Z,10.03
2023-02-12T15:01:07.533Z,9.99
2023-02-12T15:03:44.352Z,10.04
2023-02-12T15:06:19.150Z,10.34
2023-02-12T15:08:57.213Z,9.98
2023-02-12T15:11:42.077Z,10.26
2023-02-12T15:14:20.212Z,9.95
2023-02-12T15:17:00.076Z,9.59
2023-02-12T15:19:40.859Z,9.73
2023-02-12T15:22:23.530Z,10.12
2023-02-12T15:25:15.781Z,9.43
2023-02-12T15:27:51.878Z,9.33
2023-02-12T15:30:27.162Z,9.66
2023-02-12T15:33:04.580Z,9.87
2023-02-12T15:35:41.069Z,9.82
2023-02-12T15:38:21.992Z,9.66
2023-02-12T15:40:56.957Z,9.52
2023-02-12T15:43:35.354Z,9.79
2023-02-12T15:46:17.207Z,9.34
2023-02-12T15:48:50.471Z,9.47
2023-02-12T15:51:30.609Z,9.21
2023-02-12T15:54:07.847Z,9.28
2023-02-12T15:56:42.597Z,9.46
2023-02-12T15:59:22.313Z,9.18
2023-02-12T16:01:58.025Z,9.12
2023-02-12T16:04:33.650Z,9.14
2023-02-12T16:07:08.398Z,8.55
2023-02-12T16:09:42.830Z,8.65
2023-02-12T16:12:19.195Z,8.89
2023-02-12T16:14:55.549Z,8.90
2023-02-12T16:17:30.118Z,8.94
2023-02-12T16:20:06.542Z,8.78
2023-02-12T16:22:41.102Z,8.44
2023-02-12T16:25:18.322Z,8.79
2023-02-12T16:27:57.913Z,8.37
2023-02-12T16:30:38.711Z,8.16
2023-02-12T16:33:36.624Z,8.23
2023-02-12T16:36:14.659Z,8.38
2023-02-12T16:38:49.069Z,8.26
2023-02-12T16:41:27.017Z,8.21
2023-02-12T16:44:25.716Z,8.17
2023-02-12T16:47:02.263Z,8.26
2023-02-12T16:49:35.083Z,7.88
2023-02-12T16:52:29.330Z,8.04
2023-02-12T16:55:02.606Z,7.92
2023-02-12T16:57:35.421Z,8.02
2023-02-12T17:00:09.736Z,7.76
2023-02-12T17:02:44.541Z,7.79
2023-02-12T17:05:18.654Z,7.92
2023-02-12T17:07:51.920Z,7.69
2023-02-12T17:10:25.039Z,7.51
2023-02-12T17:12:57.915Z,7.75
2023-02-12T17:15:35.449Z,7.44
2023-02-12T17:18:11.419Z,7.51
2023-02-12T17:20:46.259Z,7.43
2023-02-12T17:23:19.136Z,7.46
2023-02-12T17:25:52.144Z,7.67
2023-02-12T17:28:25.406Z,7.54
2023-02-12T17:30:58.578Z,7.39
2023-02-12T17:33:32.997Z,7.57
2023-02-12T17:36:06.726Z,7.80
2023-02-12T17:38:39.493Z,7.48
2023-02-12T17:41:12.356Z,7.66
2023-02-12T17:43:46.426Z,7.59
2023-02-12T17:46:21.502Z,7.49
2023-02-12T17:48:55.949Z,7.50
2023-02-12T17:51:29.011Z,7.31
2023-02-12T17:54:01.853Z,7.36
2023-02-12T17:56:34.674Z,7.39
2023-02-12T17:59:07.474Z,7.34
2023-02-12T18:01:42.877Z,7.44
2023-02-12T18:04:17.041Z,7.73
2023-02-12T18:06:49.853Z,7.76
2023-02-12T18:09:22.681Z,7.39
2023-02-12T18:11:55.574Z,7.59
2023-02-12T18:14:28.467Z,7.11
2023-02-12T18:17:01.358Z,7.41
2023-02-12T18:19:35.525Z,7.55
2023-02-12T18:22:08.354Z,7.59
2023-02-12T18:24:41.451Z,7.23
2023-02-12T18:27:15.124Z,7.09
2023-02-12T18:29:48.131Z,6.97
2023-02-12T18:32:20.996Z,6.84
2023-02-12T18:34:55.125Z,6.83
2023-02-12T18:37:27.945Z,6.95
2023-02-12T18:40:00.901Z,6.72
2023-02-12T18:42:33.736Z,6.89
2023-02-12T18:45:07.405Z,6.60
2023-02-12T18:47:40.279Z,6.89
2023-02-12T18:50:14.455Z,6.72
2023-02-12T18:52:47.328Z,6.96
2023-02-12T18:55:20.110Z,6.86
2023-02-12T18:57:53.205Z,6.62
2023-02-12T19:00:26.293Z,6.85
2023-02-12T19:02:59.142Z,6.91
2023-02-12T19:05:33.726Z,6.67
2023-02-12T19:08:06.582Z,6.82
2023-02-12T19:10:40.287Z,6.65
2023-02-12T19:13:13.094Z,6.79
2023-02-12T19:15:46.154Z,6.54
2023-02-12T19:18:19.520Z,6.27
2023-02-12T19:20:53.852Z,6.34
2023-02-12T19:23:26.786Z,6.42
2023-02-12T19:26:03.847Z,6.32
2023-02-12T19:28:38.381Z,6.41
2023-02-12T19:31:14.288Z,5.82
2023-02-12T19:33:49.946Z,5.82
2023-02-12T19:36:25.218Z,6.01
2023-02-12T19:38:58.072Z,5.99
2023-02-12T19:41:40.640Z,5.73
2023-02-12T19:44:16.782Z,5.87
2023-02-12T19:46:51.339Z,5.67
2023-02-12T19:49:26.490Z,5.80
2023-02-12T19:52:00.620Z,5.78
2023-02-12T19:54:33.823Z,5.47
2023-02-12T19:57:09.316Z,5.67
2023-02-12T19:59:42.467Z,5.56
2023-02-12T20:02:15.268Z,6.05
2023-02-12T20:04:48.311Z,5.77
2023-02-12T20:07:22.561Z,5.68
2023-02-12T20:09:55.338Z,5.58
2023-02-12T20:12:28.207Z,5.46
2023-02-12T20:15:02.765Z,5.39
2023-02-12T20:17:35.768Z,5.26
2023-02-12T20:20:10.283Z,5.37
2023-02-12T20:22:44.453Z,5.32
2023-02-12T20:25:17.540Z,5.20
2023-02-12T20:27:51.047Z,5.08
2023-02-12T20:30:24.562Z,5.18
2023-02-12T20:32:57.382Z,5.00
2023-02-12T20:35:31.509Z,4.84
2023-02-12T20:38:05.921Z,4.68
2023-02-12T20:40:39.295Z,4.38
2023-02-12T20:43:12.100Z,4.27
2023-02-12T20:45:45.084Z,4.27
2023-02-12T20:48:19.157Z,4.38
2023-02-12T20:50:51.926Z,4.25
2023-02-12T20:53:26.162Z,3.80
2023-02-12T20:56:02.070Z,3.94
2023-02-12T20:58:35.180Z,4.13
2023-02-12T21:01:10.080Z,4.37
2023-02-12T21:03:43.171Z,4.23
2023-02-12T21:06:16.257Z,4.17
2023-02-12T21:08:51.679Z,4.14
2023-02-12T21:11:26.772Z,3.80
2023-02-12T21:14:20.710Z,3.48
2023-02-12T21:16:56.332Z,4.17
2023-02-12T21:19:29.387Z,4.00
2023-02-12T21:22:02.202Z,3.44
2023-02-12T21:24:36.545Z,3.60
2023-02-12T21:27:09.330Z,3.07
2023-02-12T21:29:42.157Z,2.87
2023-02-12T21:32:15.153Z,3.33
2023-02-12T21:34:48.948Z,3.48
2023-02-12T21:37:21.941Z,3.32
2023-02-12T21:39:56.161Z,3.26
2023-02-12T21:42:30.336Z,3.70
2023-02-12T21:45:03.935Z,3.31
2023-02-12T21:47:37.006Z,3.13
2023-02-12T21:50:14.105Z,3.43
2023-02-12T21:52:54.470Z,3.25
2023-02-12T21:56:04.542Z,3.04
2023-02-12T21:59:06.556Z,2.81
2023-02-12T22:02:15.559Z,3.29
2023-02-12T22:05:23.491Z,3.64
2023-02-12T22:08:04.593Z,3.62
2023-02-12T22:11:02.163Z,3.70
2023-02-12T22:13:35.667Z,3.19
2023-02-12T22:16:10.108Z,3.00
2023-02-12T22:18:44.055Z,3.28
2023-02-12T22:21:30.507Z,3.22
2023-02-12T22:24:12.901Z,3.36
2023-02-12T22:26:47.175Z,3.64
2023-02-12T22:29:21.149Z,3.31
2023-02-12T22:31:55.938Z,3.23
2023-02-12T22:34:28.790Z,3.44
2023-02-12T22:37:01.632Z,3.76
2023-02-12T22:39:34.718Z,3.76
2023-02-12T22:42:09.202Z,3.61
2023-02-12T22:44:42.018Z,3.78
2023-02-12T22:47:14.843Z,3.89
2023-02-12T22:49:47.636Z,3.76
2023-02-12T22:52:20.409Z,3.73
2023-02-12T22:54:53.221Z,3.45
2023-02-12T22:57:27.499Z,3.67
2023-02-12T23:00:00.411Z,3.65
2023-02-12T23:02:33.913Z,3.51
2023-02-12T23:05:06.797Z,3.52
2023-02-12T23:07:39.588Z,3.65
2023-02-12T23:10:12.910Z,3.54
2023-02-12T23:12:47.142Z,3.48
2023-02-12T23:15:19.940Z,3.57
2023-02-12T23:17:53.018Z,3.64
2023-02-12T23:20:25.870Z,3.55
2023-02-12T23:22:59.074Z,3.45
2023-02-12T23:25:31.938Z,3.40
2023-02-12T23:28:06.274Z,3.20
2023-02-12T23:30:39.305Z,3.00
2023-02-12T23:33:12.261Z,3.27
2023-02-12T23:35:45.950Z,2.93
2023-02-12T23:38:18.871Z,2.95
2023-02-12T23:40:51.679Z,3.51
2023-02-12T23:43:25.953Z,2.97
2023-02-12T23:45:58.866Z,3.40
2023-02-12T23:48:31.712Z,3.30
2023-02-12T23:51:04.720Z,3.29
2023-02-12T23:53:37.621Z,3.33
2023-02-12T23:56:10.377Z,2.97
2023-02-12T23:58:44.525Z,2.82
